CDF2 weather

Teeswater (Dent Field)
Ontario, Canada

Public forecast

Using degrees Celsius for public forecast. Weather courtesy of forecast.io.

Closest aviation weather report (METAR) to Teeswater (Dent Field)

Closest report is Wiarton Airport, 45.8 nm (84.9 km) N. Retrieved 2019/12/08 07:00 UTC (42 minutes ago):

CYVV 080700Z 19012G19KT 15SM DRSN BKN160 M04/M06 A3018 RMK AC6 SLP235

Closest aviation forecast (TAF) to Teeswater (Dent Field)

Forecast is more than 6 hours old.

Closest forecast is Wiarton Airport, 45.8 nm (84.9 km) N. Retrieved 2019/12/07 20:00 UTC (12 hours ago):

TAF CYVV 071939Z 0720/0724 18008KT P6SM BKN025 TEMPO 0720/0721 4SM -SN OVC020 FM072100 21010G20KT 3SM -SN OVC015 TEMPO 0721/0724 P6SM NSW OVC020 PROB30 0722/0724 P6SM -FZDZ RMK NXT FCST WILL BE ISSUED AT 081145Z